Omak, WA

8:50 PM PDT on September 23, 2014 (GMT -0700)
Omak | Change Station
CLOSE
Current Station
Airport
Location: Omak,
Elevation: 1302 ft
Nearby Weather Stations

Elev 1302 ft 48.46 °N, 119.52 °W | Updated 57 minutes ago

Mostly Cloudy
Mostly Cloudy
67 °F
Feels Like 67 °F
N
8
Wind Variable Wind from South

Today
High -- | Low -- °F
--% Chance of Precip.
Yesterday
High -- | Low -- °F
Precip. -- in
6:46 AM 6:53 PM
Waning Crescent, 0% visible
Pressure 29.83 in
Visibility 10.0 miles
Clouds Scattered Clouds 9000 ft
Mostly Cloudy 12000 ft
Dew Point 55 °F
Humidity 66%
Rainfall 0.00 in
Snow Depth 0 in , 0 in , 0 in
UV 0 out of 12
Pollen 6.10 out of 12
Air Quality Not available.
Flu Activity Not available.
METAR KOMK 240253Z AUTO 18007KT 10SM SCT090 BKN120 19/13 A2984 RMK AO2 SLP100 T01940128 53001

More Conditions Fewer Conditions

Pressure 29.83 in
Visibility 10.0 miles
Clouds Scattered Clouds 9000 ft
Mostly Cloudy 12000 ft
Dew Point 55 °F
Humidity 66%
Rainfall 0.00 in
Snow Depth 0 in , 0 in , 0 in
UV 0 out of 12
Pollen 6.10 out of 12
Air Quality Not available.
Flu Activity Not available.
METAR KOMK 240253Z AUTO 18007KT 10SM SCT090 BKN120 19/13 A2984 RMK AO2 SLP100 T01940128 53001

More Conditions Fewer Conditions

10-Day Weather Forecast

Almanac

Astronomy

Sep. 23, 2014 Rise Set
Actual Time 6:46 AM PDT 6:53 PM PDT
Civil Twilight 6:15 AM PDT 7:24 PM PDT
Nautical Twilight 5:38 AM PDT 8:01 PM PDT
Astronomical Twilight 5:00 AM PDT 8:39 PM PDT
Moon 6:14 AM PDT (9/23) 6:33 PM PDT (9/23)
Length of Visible Light 13h 09m
Length of Day
12h 07m
Tomorrow will be 3m 30s shorter.
Waning Crescent, 0% of the Moon is Illuminated
Today
Waning Crescent
Sep 24
New
Oct 1
First Quarter
Oct 8
Full
Oct 15
Last Quarter

Today's Extremes

State Highs State Lows

Community

WunderPhotos

Upload Photos

1,755,878 photos uploaded!

WunderBlogs® & News

Nearby

Snow Depth

Station Depth Elevation
Skookum Creek 0 in 3920 ft
Lone Pine 0 in 3800 ft
Surprise Lakes 0 in 4250 ft
Harts Pass 1 in 6500 ft
Dungeness 0 in 4100 ft

Earthquake Activity

City Distance Mag. Time & Date
No recent earthquake activity has been reported nearby.
Minimum magnitude displayed is 2.5.

Coastal Water Temperatures

Place Temperature
No Stations Reporting

Nearby Weather Stations